sensor_id;sensor_type;location;lat;lon;timestamp;temperature;humidity
6690;DHT22;3382;51.576;8.076;2023-01-16T00:00:27;7.20;99.90
6690;DHT22;3382;51.576;8.076;2023-01-16T00:02:52;7.20;99.90
6690;DHT22;3382;51.576;8.076;2023-01-16T00:05:18;7.10;99.90
6690;DHT22;3382;51.576;8.076;2023-01-16T00:07:44;7.10;99.90
6690;DHT22;3382;51.576;8.076;2023-01-16T00:10:09;7.10;99.90
6690;DHT22;3382;51.576;8.076;2023-01-16T00:12:35;7.10;99.90
6690;DHT22;3382;51.576;8.076;2023-01-16T00:15:01;7.00;99.90
6690;DHT22;3382;51.576;8.076;2023-01-16T00:17:27;7.00;99.90
6690;DHT22;3382;51.576;8.076;2023-01-16T00:19:52;7.10;99.90
6690;DHT22;3382;51.576;8.076;2023-01-16T00:22:18;7.00;99.90
6690;DHT22;3382;51.576;8.076;2023-01-16T00:24:44;7.00;99.90
6690;DHT22;3382;51.576;8.076;2023-01-16T00:27:09;6.90;99.90
6690;DHT22;3382;51.576;8.076;2023-01-16T00:29:35;6.90;99.90
6690;DHT22;3382;51.576;8.076;2023-01-16T00:32:00;6.90;99.90
6690;DHT22;3382;51.576;8.076;2023-01-16T00:34:26;7.00;99.90
6690;DHT22;3382;51.576;8.076;2023-01-16T00:36:51;7.10;99.90
6690;DHT22;3382;51.576;8.076;2023-01-16T00:39:17;7.00;99.90
6690;DHT22;3382;51.576;8.076;2023-01-16T00:41:43;7.00;99.90
6690;DHT22;3382;51.576;8.076;2023-01-16T00:44:08;7.10;99.90
6690;DHT22;3382;51.576;8.076;2023-01-16T00:46:34;7.10;99.90
6690;DHT22;3382;51.576;8.076;2023-01-16T00:48:59;7.10;99.90
6690;DHT22;3382;51.576;8.076;2023-01-16T00:51:25;7.10;99.90
6690;DHT22;3382;51.576;8.076;2023-01-16T00:53:51;7.20;99.90
6690;DHT22;3382;51.576;8.076;2023-01-16T00:56:16;7.20;99.90
6690;DHT22;3382;51.576;8.076;2023-01-16T00:58:42;7.20;99.90
6690;DHT22;3382;51.576;8.076;2023-01-16T01:01:07;7.20;99.90
6690;DHT22;3382;51.576;8.076;2023-01-16T01:03:33;7.20;99.90
6690;DHT22;3382;51.576;8.076;2023-01-16T01:05:59;7.20;99.90
6690;DHT22;3382;51.576;8.076;2023-01-16T01:08:24;7.20;99.90
6690;DHT22;3382;51.576;8.076;2023-01-16T01:10:50;7.20;99.90
6690;DHT22;3382;51.576;8.076;2023-01-16T01:13:15;7.10;99.90
6690;DHT22;3382;51.576;8.076;2023-01-16T01:15:41;7.10;99.90
6690;DHT22;3382;51.576;8.076;2023-01-16T01:18:07;7.10;99.90
6690;DHT22;3382;51.576;8.076;2023-01-16T01:20:32;7.10;99.90
6690;DHT22;3382;51.576;8.076;2023-01-16T01:22:58;7.20;99.90
6690;DHT22;3382;51.576;8.076;2023-01-16T01:25:24;7.20;99.90
6690;DHT22;3382;51.576;8.076;2023-01-16T01:27:49;7.10;99.90
6690;DHT22;3382;51.576;8.076;2023-01-16T01:30:15;7.20;99.90
6690;DHT22;3382;51.576;8.076;2023-01-16T01:32:41;7.20;99.90
6690;DHT22;3382;51.576;8.076;2023-01-16T01:35:08;7.40;99.90
6690;DHT22;3382;51.576;8.076;2023-01-16T01:37:34;7.60;99.90
6690;DHT22;3382;51.576;8.076;2023-01-16T01:40:00;7.70;99.90
6690;DHT22;3382;51.576;8.076;2023-01-16T01:42:26;7.60;99.90
6690;DHT22;3382;51.576;8.076;2023-01-16T01:48:29;7.40;99.90
6690;DHT22;3382;51.576;8.076;2023-01-16T01:50:36;7.30;99.90
6690;DHT22;3382;51.576;8.076;2023-01-16T01:53:12;7.20;99.90
6690;DHT22;3382;51.576;8.076;2023-01-16T01:55:39;7.10;99.90
6690;DHT22;3382;51.576;8.076;2023-01-16T01:58:06;7.20;99.90
6690;DHT22;3382;51.576;8.076;2023-01-16T02:00:32;7.20;99.90
6690;DHT22;3382;51.576;8.076;2023-01-16T02:03:04;7.30;99.90
6690;DHT22;3382;51.576;8.076;2023-01-16T02:05:46;7.10;99.90
6690;DHT22;3382;51.576;8.076;2023-01-16T02:08:16;7.10;99.90
6690;DHT22;3382;51.576;8.076;2023-01-16T02:10:47;7.10;99.90
6690;DHT22;3382;51.576;8.076;2023-01-16T02:13:14;7.00;99.90
6690;DHT22;3382;51.576;8.076;2023-01-16T02:15:40;6.90;99.90
6690;DHT22;3382;51.576;8.076;2023-01-16T02:18:26;7.00;99.90
6690;DHT22;3382;51.576;8.076;2023-01-16T02:21:42;6.80;99.90
6690;DHT22;3382;51.576;8.076;2023-01-16T02:24:35;6.70;99.90
6690;DHT22;3382;51.576;8.076;2023-01-16T02:40:21;6.60;99.90
6690;DHT22;3382;51.576;8.076;2023-01-16T02:43:02;6.60;99.90
6690;DHT22;3382;51.576;8.076;2023-01-16T02:48:21;6.60;99.90
6690;DHT22;3382;51.576;8.076;2023-01-16T02:53:57;6.50;99.90
6690;DHT22;3382;51.576;8.076;2023-01-16T02:56:31;6.50;99.90
6690;DHT22;3382;51.576;8.076;2023-01-16T02:58:58;6.50;99.90
6690;DHT22;3382;51.576;8.076;2023-01-16T03:01:23;6.60;99.90
6690;DHT22;3382;51.576;8.076;2023-01-16T03:15:18;6.50;99.90
6690;DHT22;3382;51.576;8.076;2023-01-16T03:21:08;6.50;99.90
6690;DHT22;3382;51.576;8.076;2023-01-16T03:24:03;6.50;99.90
6690;DHT22;3382;51.576;8.076;2023-01-16T03:32:35;6.50;99.90
6690;DHT22;3382;51.576;8.076;2023-01-16T03:35:11;6.40;99.90
6690;DHT22;3382;51.576;8.076;2023-01-16T03:37:44;6.50;99.90
6690;DHT22;3382;51.576;8.076;2023-01-16T03:42:55;6.50;99.90
6690;DHT22;3382;51.576;8.076;2023-01-16T03:45:41;6.50;99.90
6690;DHT22;3382;51.576;8.076;2023-01-16T03:48:20;6.50;99.90
6690;DHT22;3382;51.576;8.076;2023-01-16T03:50:53;6.50;99.90
6690;DHT22;3382;51.576;8.076;2023-01-16T03:53:26;6.50;99.90
6690;DHT22;3382;51.576;8.076;2023-01-16T03:56:21;6.50;99.90
6690;DHT22;3382;51.576;8.076;2023-01-16T03:58:50;6.50;99.90
6690;DHT22;3382;51.576;8.076;2023-01-16T04:01:54;6.60;99.90
6690;DHT22;3382;51.576;8.076;2023-01-16T04:07:02;6.60;99.90
6690;DHT22;3382;51.576;8.076;2023-01-16T04:09:36;6.60;99.90
6690;DHT22;3382;51.576;8.076;2023-01-16T04:12:04;6.60;99.90
6690;DHT22;3382;51.576;8.076;2023-01-16T04:14:31;6.60;99.90
6690;DHT22;3382;51.576;8.076;2023-01-16T04:16:58;6.50;99.90
6690;DHT22;3382;51.576;8.076;2023-01-16T04:19:25;6.70;99.90
6690;DHT22;3382;51.576;8.076;2023-01-16T04:21:52;6.50;99.90
6690;DHT22;3382;51.576;8.076;2023-01-16T04:24:18;6.50;99.90
6690;DHT22;3382;51.576;8.076;2023-01-16T04:26:44;6.50;99.90
6690;DHT22;3382;51.576;8.076;2023-01-16T04:29:10;6.50;99.90
6690;DHT22;3382;51.576;8.076;2023-01-16T04:31:35;6.40;99.90
6690;DHT22;3382;51.576;8.076;2023-01-16T04:34:01;6.40;99.90
6690;DHT22;3382;51.576;8.076;2023-01-16T04:36:26;6.40;99.90
6690;DHT22;3382;51.576;8.076;2023-01-16T04:38:52;6.40;99.90
6690;DHT22;3382;51.576;8.076;2023-01-16T04:41:18;6.30;99.90
6690;DHT22;3382;51.576;8.076;2023-01-16T04:44:02;6.30;99.90
6690;DHT22;3382;51.576;8.076;2023-01-16T04:46:28;6.20;99.90
6690;DHT22;3382;51.576;8.076;2023-01-16T04:48:54;6.20;99.90
6690;DHT22;3382;51.576;8.076;2023-01-16T04:51:19;6.20;99.90
6690;DHT22;3382;51.576;8.076;2023-01-16T04:53:45;6.20;99.90
6690;DHT22;3382;51.576;8.076;2023-01-16T04:56:11;6.10;99.90
6690;DHT22;3382;51.576;8.076;2023-01-16T04:58:36;6.10;99.90
6690;DHT22;3382;51.576;8.076;2023-01-16T05:01:02;6.10;99.90
6690;DHT22;3382;51.576;8.076;2023-01-16T05:03:27;6.00;99.90
6690;DHT22;3382;51.576;8.076;2023-01-16T05:05:53;6.10;99.90
6690;DHT22;3382;51.576;8.076;2023-01-16T05:08:19;6.00;99.90
6690;DHT22;3382;51.576;8.076;2023-01-16T05:10:45;5.90;99.90
6690;DHT22;3382;51.576;8.076;2023-01-16T05:13:12;5.90;99.90
6690;DHT22;3382;51.576;8.076;2023-01-16T05:15:37;5.90;99.90
6690;DHT22;3382;51.576;8.076;2023-01-16T05:18:03;5.90;99.90
6690;DHT22;3382;51.576;8.076;2023-01-16T05:20:29;5.80;99.90
6690;DHT22;3382;51.576;8.076;2023-01-16T05:22:54;5.90;99.90
6690;DHT22;3382;51.576;8.076;2023-01-16T05:25:20;5.90;99.90
6690;DHT22;3382;51.576;8.076;2023-01-16T05:27:50;5.80;99.90
6690;DHT22;3382;51.576;8.076;2023-01-16T05:30:16;5.80;99.90
6690;DHT22;3382;51.576;8.076;2023-01-16T05:32:43;5.80;99.90
6690;DHT22;3382;51.576;8.076;2023-01-16T05:35:09;5.80;99.90
6690;DHT22;3382;51.576;8.076;2023-01-16T05:37:35;5.80;99.90
6690;DHT22;3382;51.576;8.076;2023-01-16T05:40:01;5.90;99.90
6690;DHT22;3382;51.576;8.076;2023-01-16T05:42:27;5.90;99.90
6690;DHT22;3382;51.576;8.076;2023-01-16T05:44:53;6.00;99.90
6690;DHT22;3382;51.576;8.076;2023-01-16T05:47:19;6.10;99.90
6690;DHT22;3382;51.576;8.076;2023-01-16T05:49:45;6.20;99.90
6690;DHT22;3382;51.576;8.076;2023-01-16T05:52:10;6.30;99.90
6690;DHT22;3382;51.576;8.076;2023-01-16T05:54:36;6.40;99.90
6690;DHT22;3382;51.576;8.076;2023-01-16T05:57:02;6.40;99.90
6690;DHT22;3382;51.576;8.076;2023-01-16T05:59:28;6.40;99.90
6690;DHT22;3382;51.576;8.076;2023-01-16T06:01:53;6.60;99.90
6690;DHT22;3382;51.576;8.076;2023-01-16T06:04:19;6.60;99.90
6690;DHT22;3382;51.576;8.076;2023-01-16T06:06:45;6.70;99.90
6690;DHT22;3382;51.576;8.076;2023-01-16T06:09:11;6.70;99.90
6690;DHT22;3382;51.576;8.076;2023-01-16T06:11:37;6.70;99.90
6690;DHT22;3382;51.576;8.076;2023-01-16T06:14:02;6.90;99.90
6690;DHT22;3382;51.576;8.076;2023-01-16T06:16:30;6.80;99.90
6690;DHT22;3382;51.576;8.076;2023-01-16T06:18:56;6.90;99.90
6690;DHT22;3382;51.576;8.076;2023-01-16T06:21:22;7.30;99.90
6690;DHT22;3382;51.576;8.076;2023-01-16T06:23:47;7.20;99.90
6690;DHT22;3382;51.576;8.076;2023-01-16T06:26:13;7.00;99.90
6690;DHT22;3382;51.576;8.076;2023-01-16T06:28:39;6.80;99.90
6690;DHT22;3382;51.576;8.076;2023-01-16T06:31:05;6.80;99.90
6690;DHT22;3382;51.576;8.076;2023-01-16T06:33:31;7.10;99.90
6690;DHT22;3382;51.576;8.076;2023-01-16T06:35:57;8.20;99.90
6690;DHT22;3382;51.576;8.076;2023-01-16T06:38:23;7.90;99.90
6690;DHT22;3382;51.576;8.076;2023-01-16T06:40:48;7.50;99.90
6690;DHT22;3382;51.576;8.076;2023-01-16T06:43:14;7.20;99.90
6690;DHT22;3382;51.576;8.076;2023-01-16T06:45:43;7.60;99.90
6690;DHT22;3382;51.576;8.076;2023-01-16T06:48:11;8.10;99.90
6690;DHT22;3382;51.576;8.076;2023-01-16T06:50:37;8.30;99.90
6690;DHT22;3382;51.576;8.076;2023-01-16T06:53:02;7.90;99.90
6690;DHT22;3382;51.576;8.076;2023-01-16T06:55:28;7.50;99.90
6690;DHT22;3382;51.576;8.076;2023-01-16T06:57:54;7.30;99.90
6690;DHT22;3382;51.576;8.076;2023-01-16T07:00:19;7.10;99.90
6690;DHT22;3382;51.576;8.076;2023-01-16T07:02:54;7.20;99.90
6690;DHT22;3382;51.576;8.076;2023-01-16T07:05:22;6.90;99.90
6690;DHT22;3382;51.576;8.076;2023-01-16T07:07:48;6.90;99.90
6690;DHT22;3382;51.576;8.076;2023-01-16T07:10:14;7.20;99.90
6690;DHT22;3382;51.576;8.076;2023-01-16T07:12:40;6.90;99.90
6690;DHT22;3382;51.576;8.076;2023-01-16T07:15:06;6.90;99.90
6690;DHT22;3382;51.576;8.076;2023-01-16T07:17:51;6.80;99.90
6690;DHT22;3382;51.576;8.076;2023-01-16T07:20:35;7.10;99.90
6690;DHT22;3382;51.576;8.076;2023-01-16T07:23:31;6.90;99.90
6690;DHT22;3382;51.576;8.076;2023-01-16T07:26:00;6.90;99.90
6690;DHT22;3382;51.576;8.076;2023-01-16T07:28:27;6.90;99.90
6690;DHT22;3382;51.576;8.076;2023-01-16T07:30:54;6.90;99.90
6690;DHT22;3382;51.576;8.076;2023-01-16T07:33:21;7.00;99.90
6690;DHT22;3382;51.576;8.076;2023-01-16T07:35:46;7.00;99.90
6690;DHT22;3382;51.576;8.076;2023-01-16T07:38:12;7.00;99.90
6690;DHT22;3382;51.576;8.076;2023-01-16T07:40:37;7.10;99.90
6690;DHT22;3382;51.576;8.076;2023-01-16T07:43:03;7.10;99.90
6690;DHT22;3382;51.576;8.076;2023-01-16T07:45:29;7.10;99.90
6690;DHT22;3382;51.576;8.076;2023-01-16T07:47:54;7.20;99.90
6690;DHT22;3382;51.576;8.076;2023-01-16T07:50:20;7.20;99.90
6690;DHT22;3382;51.576;8.076;2023-01-16T07:52:46;7.20;99.90
6690;DHT22;3382;51.576;8.076;2023-01-16T07:55:12;7.20;99.90
6690;DHT22;3382;51.576;8.076;2023-01-16T07:57:38;7.30;99.90
6690;DHT22;3382;51.576;8.076;2023-01-16T08:00:06;7.30;99.90
6690;DHT22;3382;51.576;8.076;2023-01-16T08:02:33;7.30;99.90
6690;DHT22;3382;51.576;8.076;2023-01-16T08:04:58;7.30;99.90
6690;DHT22;3382;51.576;8.076;2023-01-16T08:07:24;7.40;99.90
6690;DHT22;3382;51.576;8.076;2023-01-16T08:09:50;7.40;99.90
6690;DHT22;3382;51.576;8.076;2023-01-16T08:12:15;7.30;99.90
6690;DHT22;3382;51.576;8.076;2023-01-16T08:14:41;7.40;99.90
6690;DHT22;3382;51.576;8.076;2023-01-16T08:17:06;7.40;99.90
6690;DHT22;3382;51.576;8.076;2023-01-16T08:19:32;7.40;99.90
6690;DHT22;3382;51.576;8.076;2023-01-16T08:21:58;7.30;99.90
6690;DHT22;3382;51.576;8.076;2023-01-16T08:24:24;7.40;99.90
6690;DHT22;3382;51.576;8.076;2023-01-16T08:26:51;7.30;99.90
6690;DHT22;3382;51.576;8.076;2023-01-16T08:29:18;7.30;99.90
6690;DHT22;3382;51.576;8.076;2023-01-16T08:31:43;7.40;99.90
6690;DHT22;3382;51.576;8.076;2023-01-16T08:34:09;7.30;99.90
6690;DHT22;3382;51.576;8.076;2023-01-16T08:36:35;7.30;99.90
6690;DHT22;3382;51.576;8.076;2023-01-16T08:39:01;7.30;99.90
6690;DHT22;3382;51.576;8.076;2023-01-16T08:41:26;7.30;99.90
6690;DHT22;3382;51.576;8.076;2023-01-16T08:44:10;7.40;99.90
6690;DHT22;3382;51.576;8.076;2023-01-16T08:47:03;7.40;99.90
6690;DHT22;3382;51.576;8.076;2023-01-16T08:49:48;7.40;99.90
6690;DHT22;3382;51.576;8.076;2023-01-16T08:52:34;7.40;99.90
6690;DHT22;3382;51.576;8.076;2023-01-16T08:55:01;7.60;99.90
6690;DHT22;3382;51.576;8.076;2023-01-16T08:57:27;7.40;99.90
6690;DHT22;3382;51.576;8.076;2023-01-16T08:59:54;7.50;99.90
6690;DHT22;3382;51.576;8.076;2023-01-16T09:02:20;7.50;99.90
6690;DHT22;3382;51.576;8.076;2023-01-16T09:04:46;7.40;99.90
6690;DHT22;3382;51.576;8.076;2023-01-16T09:07:13;7.50;99.90
6690;DHT22;3382;51.576;8.076;2023-01-16T09:09:39;7.40;99.90
6690;DHT22;3382;51.576;8.076;2023-01-16T09:12:11;7.50;99.90
6690;DHT22;3382;51.576;8.076;2023-01-16T09:14:56;7.60;99.90
6690;DHT22;3382;51.576;8.076;2023-01-16T09:17:23;7.50;99.90
6690;DHT22;3382;51.576;8.076;2023-01-16T09:19:49;7.50;99.90
6690;DHT22;3382;51.576;8.076;2023-01-16T09:22:15;7.60;99.90
6690;DHT22;3382;51.576;8.076;2023-01-16T09:24:40;7.60;99.90
6690;DHT22;3382;51.576;8.076;2023-01-16T09:27:06;7.60;99.90
6690;DHT22;3382;51.576;8.076;2023-01-16T09:29:31;7.50;99.90
6690;DHT22;3382;51.576;8.076;2023-01-16T09:31:58;7.40;99.90
6690;DHT22;3382;51.576;8.076;2023-01-16T09:34:24;7.40;99.90
6690;DHT22;3382;51.576;8.076;2023-01-16T09:36:50;7.30;99.90
6690;DHT22;3382;51.576;8.076;2023-01-16T09:39:16;7.30;99.90
6690;DHT22;3382;51.576;8.076;2023-01-16T09:41:55;7.10;99.90
6690;DHT22;3382;51.576;8.076;2023-01-16T09:44:44;7.10;99.90
6690;DHT22;3382;51.576;8.076;2023-01-16T09:47:12;7.20;99.90
6690;DHT22;3382;51.576;8.076;2023-01-16T09:49:45;7.10;99.90
6690;DHT22;3382;51.576;8.076;2023-01-16T09:52:16;7.20;99.90
6690;DHT22;3382;51.576;8.076;2023-01-16T09:55:06;7.20;99.90
6690;DHT22;3382;51.576;8.076;2023-01-16T09:57:57;7.10;99.90
6690;DHT22;3382;51.576;8.076;2023-01-16T10:00:42;7.20;99.90
6690;DHT22;3382;51.576;8.076;2023-01-16T10:03:09;7.10;99.90
6690;DHT22;3382;51.576;8.076;2023-01-16T10:06:41;7.10;99.90
6690;DHT22;3382;51.576;8.076;2023-01-16T10:08:54;7.20;99.90
6690;DHT22;3382;51.576;8.076;2023-01-16T10:11:50;7.30;99.90
6690;DHT22;3382;51.576;8.076;2023-01-16T10:22:37;7.20;99.90
6690;DHT22;3382;51.576;8.076;2023-01-16T10:30:28;7.40;99.90
6690;DHT22;3382;51.576;8.076;2023-01-16T10:33:15;7.40;99.90
6690;DHT22;3382;51.576;8.076;2023-01-16T10:35:43;7.40;99.90
6690;DHT22;3382;51.576;8.076;2023-01-16T10:38:29;7.40;99.90
6690;DHT22;3382;51.576;8.076;2023-01-16T10:44:34;7.50;99.90
6690;DHT22;3382;51.576;8.076;2023-01-16T10:47:23;7.60;99.90
6690;DHT22;3382;51.576;8.076;2023-01-16T10:50:08;7.50;99.90
6690;DHT22;3382;51.576;8.076;2023-01-16T10:52:35;7.60;99.90
6690;DHT22;3382;51.576;8.076;2023-01-16T10:55:01;7.60;99.90
6690;DHT22;3382;51.576;8.076;2023-01-16T10:57:28;7.60;99.90
6690;DHT22;3382;51.576;8.076;2023-01-16T11:00:04;7.70;99.90
6690;DHT22;3382;51.576;8.076;2023-01-16T11:02:34;7.70;99.90
6690;DHT22;3382;51.576;8.076;2023-01-16T11:05:22;7.60;99.90
6690;DHT22;3382;51.576;8.076;2023-01-16T11:07:48;7.60;99.90
6690;DHT22;3382;51.576;8.076;2023-01-16T11:10:17;7.70;99.90
6690;DHT22;3382;51.576;8.076;2023-01-16T11:12:43;7.60;99.90
6690;DHT22;3382;51.576;8.076;2023-01-16T11:15:27;7.60;99.90
6690;DHT22;3382;51.576;8.076;2023-01-16T11:18:40;7.50;99.90
6690;DHT22;3382;51.576;8.076;2023-01-16T11:21:23;7.50;99.90
6690;DHT22;3382;51.576;8.076;2023-01-16T11:24:13;7.40;99.90
6690;DHT22;3382;51.576;8.076;2023-01-16T11:26:50;7.40;99.90
6690;DHT22;3382;51.576;8.076;2023-01-16T11:29:17;7.40;99.90
6690;DHT22;3382;51.576;8.076;2023-01-16T11:31:55;7.30;99.90
6690;DHT22;3382;51.576;8.076;2023-01-16T11:34:23;7.20;99.90
6690;DHT22;3382;51.576;8.076;2023-01-16T11:36:56;7.20;99.90
6690;DHT22;3382;51.576;8.076;2023-01-16T11:39:25;7.20;99.90
6690;DHT22;3382;51.576;8.076;2023-01-16T11:41:54;7.10;99.90
6690;DHT22;3382;51.576;8.076;2023-01-16T11:44:30;7.10;99.90
6690;DHT22;3382;51.576;8.076;2023-01-16T11:47:21;7.10;99.90
6690;DHT22;3382;51.576;8.076;2023-01-16T11:49:49;7.10;99.90
6690;DHT22;3382;51.576;8.076;2023-01-16T11:52:19;7.20;99.90
6690;DHT22;3382;51.576;8.076;2023-01-16T11:55:03;7.10;99.90
6690;DHT22;3382;51.576;8.076;2023-01-16T12:06:11;7.20;99.90
6690;DHT22;3382;51.576;8.076;2023-01-16T12:14:53;7.30;99.90
6690;DHT22;3382;51.576;8.076;2023-01-16T12:17:28;7.30;99.90
6690;DHT22;3382;51.576;8.076;2023-01-16T12:20:04;7.30;99.90
6690;DHT22;3382;51.576;8.076;2023-01-16T12:22:46;7.30;99.90
6690;DHT22;3382;51.576;8.076;2023-01-16T12:37:12;7.70;99.90
6690;DHT22;3382;51.576;8.076;2023-01-16T12:47:59;8.10;99.90
6690;DHT22;3382;51.576;8.076;2023-01-16T12:53:32;8.00;99.90
6690;DHT22;3382;51.576;8.076;2023-01-16T12:58:49;8.00;99.90
6690;DHT22;3382;51.576;8.076;2023-01-16T13:01:22;8.10;99.90
6690;DHT22;3382;51.576;8.076;2023-01-16T13:03:53;8.10;99.90
6690;DHT22;3382;51.576;8.076;2023-01-16T13:06:52;8.20;99.90
6690;DHT22;3382;51.576;8.076;2023-01-16T13:09:30;8.20;99.90
6690;DHT22;3382;51.576;8.076;2023-01-16T13:12:24;8.30;99.90
6690;DHT22;3382;51.576;8.076;2023-01-16T13:15:32;8.40;99.90
6690;DHT22;3382;51.576;8.076;2023-01-16T13:18:14;8.40;99.90
6690;DHT22;3382;51.576;8.076;2023-01-16T13:20:44;8.40;99.90
6690;DHT22;3382;51.576;8.076;2023-01-16T13:23:17;8.30;99.90
6690;DHT22;3382;51.576;8.076;2023-01-16T13:25:46;8.30;99.90
6690;DHT22;3382;51.576;8.076;2023-01-16T13:31:02;8.10;99.90
6690;DHT22;3382;51.576;8.076;2023-01-16T13:33:32;8.10;99.90
6690;DHT22;3382;51.576;8.076;2023-01-16T13:41:09;8.10;99.90
6690;DHT22;3382;51.576;8.076;2023-01-16T13:43:43;8.10;99.90
6690;DHT22;3382;51.576;8.076;2023-01-16T13:46:29;8.00;99.90
6690;DHT22;3382;51.576;8.076;2023-01-16T13:49:00;8.00;99.90
6690;DHT22;3382;51.576;8.076;2023-01-16T13:51:27;8.00;99.90
6690;DHT22;3382;51.576;8.076;2023-01-16T13:53:56;8.10;99.90
6690;DHT22;3382;51.576;8.076;2023-01-16T13:56:26;8.00;99.90
6690;DHT22;3382;51.576;8.076;2023-01-16T13:58:57;8.00;99.90
6690;DHT22;3382;51.576;8.076;2023-01-16T14:09:27;8.00;99.90
6690;DHT22;3382;51.576;8.076;2023-01-16T14:14:34;7.90;99.90
6690;DHT22;3382;51.576;8.076;2023-01-16T14:17:20;7.90;99.90
6690;DHT22;3382;51.576;8.076;2023-01-16T14:19:58;7.90;99.90
6690;DHT22;3382;51.576;8.076;2023-01-16T14:22:40;7.90;99.90
6690;DHT22;3382;51.576;8.076;2023-01-16T14:25:16;7.80;99.90
6690;DHT22;3382;51.576;8.076;2023-01-16T14:27:44;7.80;99.90
6690;DHT22;3382;51.576;8.076;2023-01-16T14:30:17;7.70;99.90
6690;DHT22;3382;51.576;8.076;2023-01-16T14:33:03;7.60;99.90
6690;DHT22;3382;51.576;8.076;2023-01-16T14:35:41;7.60;99.90
6690;DHT22;3382;51.576;8.076;2023-01-16T14:38:17;7.60;99.90
6690;DHT22;3382;51.576;8.076;2023-01-16T14:40:58;7.50;99.90
6690;DHT22;3382;51.576;8.076;2023-01-16T14:47:05;7.50;99.90
6690;DHT22;3382;51.576;8.076;2023-01-16T14:58:07;7.50;99.90
6690;DHT22;3382;51.576;8.076;2023-01-16T15:00:34;7.50;99.90
6690;DHT22;3382;51.576;8.076;2023-01-16T15:03:11;7.50;99.90
6690;DHT22;3382;51.576;8.076;2023-01-16T15:05:49;7.50;99.90
6690;DHT22;3382;51.576;8.076;2023-01-16T15:08:23;7.50;99.90
6690;DHT22;3382;51.576;8.076;2023-01-16T15:10:52;7.50;99.90
6690;DHT22;3382;51.576;8.076;2023-01-16T15:13:24;7.50;99.90
6690;DHT22;3382;51.576;8.076;2023-01-16T15:15:59;7.90;99.90
6690;DHT22;3382;51.576;8.076;2023-01-16T15:18:26;8.10;99.90
6690;DHT22;3382;51.576;8.076;2023-01-16T15:21:15;8.00;99.90
6690;DHT22;3382;51.576;8.076;2023-01-16T15:24:01;7.90;99.90
6690;DHT22;3382;51.576;8.076;2023-01-16T15:31:33;7.80;99.90
6690;DHT22;3382;51.576;8.076;2023-01-16T15:36:46;7.60;99.90
6690;DHT22;3382;51.576;8.076;2023-01-16T15:39:31;7.60;99.90
6690;DHT22;3382;51.576;8.076;2023-01-16T15:44:58;7.60;99.90
6690;DHT22;3382;51.576;8.076;2023-01-16T15:50:52;7.60;99.90
6690;DHT22;3382;51.576;8.076;2023-01-16T15:53:19;7.60;99.90
6690;DHT22;3382;51.576;8.076;2023-01-16T15:55:48;7.60;99.90
6690;DHT22;3382;51.576;8.076;2023-01-16T15:58:18;7.80;99.90
6690;DHT22;3382;51.576;8.076;2023-01-16T16:00:56;7.60;99.90
6690;DHT22;3382;51.576;8.076;2023-01-16T16:03:30;7.60;99.90
6690;DHT22;3382;51.576;8.076;2023-01-16T16:05:59;7.70;99.90
6690;DHT22;3382;51.576;8.076;2023-01-16T16:08:30;7.80;99.90
6690;DHT22;3382;51.576;8.076;2023-01-16T16:10:59;7.70;99.90
6690;DHT22;3382;51.576;8.076;2023-01-16T16:13:45;7.60;99.90
6690;DHT22;3382;51.576;8.076;2023-01-16T16:16:29;7.50;99.90
6690;DHT22;3382;51.576;8.076;2023-01-16T16:19:33;7.40;99.90
6690;DHT22;3382;51.576;8.076;2023-01-16T16:22:08;7.40;99.90
6690;DHT22;3382;51.576;8.076;2023-01-16T16:24:53;7.40;99.90
6690;DHT22;3382;51.576;8.076;2023-01-16T16:27:19;7.40;99.90
6690;DHT22;3382;51.576;8.076;2023-01-16T16:29:50;7.40;99.90
6690;DHT22;3382;51.576;8.076;2023-01-16T16:32:17;7.40;99.90
6690;DHT22;3382;51.576;8.076;2023-01-16T16:34:51;7.40;99.90
6690;DHT22;3382;51.576;8.076;2023-01-16T16:37:18;7.50;99.90
6690;DHT22;3382;51.576;8.076;2023-01-16T16:39:48;7.50;99.90
6690;DHT22;3382;51.576;8.076;2023-01-16T16:47:46;7.90;99.90
6690;DHT22;3382;51.576;8.076;2023-01-16T16:55:35;7.50;99.90
6690;DHT22;3382;51.576;8.076;2023-01-16T16:58:04;7.40;99.90
6690;DHT22;3382;51.576;8.076;2023-01-16T17:00:31;7.30;99.90
6690;DHT22;3382;51.576;8.076;2023-01-16T17:03:25;7.40;99.90
6690;DHT22;3382;51.576;8.076;2023-01-16T17:05:52;7.50;99.90
6690;DHT22;3382;51.576;8.076;2023-01-16T17:08:24;7.40;99.90
6690;DHT22;3382;51.576;8.076;2023-01-16T17:10:50;7.40;99.90
6690;DHT22;3382;51.576;8.076;2023-01-16T17:13:17;7.40;99.90
6690;DHT22;3382;51.576;8.076;2023-01-16T17:15:44;7.40;99.90
6690;DHT22;3382;51.576;8.076;2023-01-16T17:18:11;7.40;99.90
6690;DHT22;3382;51.576;8.076;2023-01-16T17:20:37;7.30;99.90
6690;DHT22;3382;51.576;8.076;2023-01-16T17:23:11;7.30;99.90
6690;DHT22;3382;51.576;8.076;2023-01-16T17:25:38;7.30;99.90
6690;DHT22;3382;51.576;8.076;2023-01-16T17:28:03;7.30;99.90
6690;DHT22;3382;51.576;8.076;2023-01-16T17:30:29;7.20;99.90
6690;DHT22;3382;51.576;8.076;2023-01-16T17:33:00;7.20;99.90
6690;DHT22;3382;51.576;8.076;2023-01-16T17:35:33;7.20;99.90
6690;DHT22;3382;51.576;8.076;2023-01-16T17:37:58;7.20;99.90
6690;DHT22;3382;51.576;8.076;2023-01-16T17:40:24;7.20;99.90
6690;DHT22;3382;51.576;8.076;2023-01-16T17:42:50;7.30;99.90
6690;DHT22;3382;51.576;8.076;2023-01-16T17:45:42;7.10;99.90
6690;DHT22;3382;51.576;8.076;2023-01-16T17:48:19;7.10;99.90
6690;DHT22;3382;51.576;8.076;2023-01-16T17:50:45;7.20;99.90
6690;DHT22;3382;51.576;8.076;2023-01-16T17:53:12;7.10;99.90
6690;DHT22;3382;51.576;8.076;2023-01-16T17:55:39;7.20;99.90
6690;DHT22;3382;51.576;8.076;2023-01-16T18:00:59;7.00;99.90
6690;DHT22;3382;51.576;8.076;2023-01-16T18:03:27;7.00;99.90
6690;DHT22;3382;51.576;8.076;2023-01-16T18:05:53;7.00;99.90
6690;DHT22;3382;51.576;8.076;2023-01-16T18:08:19;6.90;99.90
6690;DHT22;3382;51.576;8.076;2023-01-16T18:10:45;6.90;99.90
6690;DHT22;3382;51.576;8.076;2023-01-16T18:13:10;6.90;99.90
6690;DHT22;3382;51.576;8.076;2023-01-16T18:15:55;6.90;99.90
6690;DHT22;3382;51.576;8.076;2023-01-16T18:18:39;6.90;99.90
6690;DHT22;3382;51.576;8.076;2023-01-16T18:21:10;7.00;99.90
6690;DHT22;3382;51.576;8.076;2023-01-16T18:23:55;7.10;99.90
6690;DHT22;3382;51.576;8.076;2023-01-16T18:26:22;7.30;99.90
6690;DHT22;3382;51.576;8.076;2023-01-16T18:28:47;7.00;99.90
6690;DHT22;3382;51.576;8.076;2023-01-16T18:31:15;6.90;99.90
6690;DHT22;3382;51.576;8.076;2023-01-16T18:33:40;6.90;99.90
6690;DHT22;3382;51.576;8.076;2023-01-16T18:36:06;6.80;99.90
6690;DHT22;3382;51.576;8.076;2023-01-16T18:38:32;6.80;99.90
6690;DHT22;3382;51.576;8.076;2023-01-16T18:41:17;6.80;99.90
6690;DHT22;3382;51.576;8.076;2023-01-16T18:44:01;6.80;99.90
6690;DHT22;3382;51.576;8.076;2023-01-16T18:46:45;6.80;99.90
6690;DHT22;3382;51.576;8.076;2023-01-16T18:49:29;6.80;99.90
6690;DHT22;3382;51.576;8.076;2023-01-16T18:52:16;6.80;99.90
6690;DHT22;3382;51.576;8.076;2023-01-16T18:55:10;7.60;99.90
6690;DHT22;3382;51.576;8.076;2023-01-16T18:57:55;7.60;99.90
6690;DHT22;3382;51.576;8.076;2023-01-16T19:00:39;7.30;99.90
6690;DHT22;3382;51.576;8.076;2023-01-16T19:03:24;7.10;99.90
6690;DHT22;3382;51.576;8.076;2023-01-16T19:05:49;6.90;99.90
6690;DHT22;3382;51.576;8.076;2023-01-16T19:08:15;6.90;99.90
6690;DHT22;3382;51.576;8.076;2023-01-16T19:10:49;6.80;99.90
6690;DHT22;3382;51.576;8.076;2023-01-16T19:13:15;6.80;99.90
6690;DHT22;3382;51.576;8.076;2023-01-16T19:15:40;6.80;99.90
6690;DHT22;3382;51.576;8.076;2023-01-16T19:18:25;6.80;99.90
6690;DHT22;3382;51.576;8.076;2023-01-16T19:20:51;6.70;99.90
6690;DHT22;3382;51.576;8.076;2023-01-16T19:23:17;6.80;99.90
6690;DHT22;3382;51.576;8.076;2023-01-16T19:25:42;6.70;99.90
6690;DHT22;3382;51.576;8.076;2023-01-16T19:28:08;6.70;99.90